createdAt,value
2023-02-03T00:00:43.851Z,11.90
2023-02-03T00:01:44.040Z,11.90
2023-02-03T00:02:44.175Z,11.40
2023-02-03T00:03:44.336Z,10.70
2023-02-03T00:04:44.515Z,10.90
2023-02-03T00:05:44.667Z,12.50
2023-02-03T00:06:44.820Z,13.80
2023-02-03T00:07:44.992Z,11.90
2023-02-03T00:08:45.185Z,10.60
2023-02-03T00:09:45.332Z,12.00
2023-02-03T00:10:45.469Z,10.40
2023-02-03T00:11:45.667Z,11.70
2023-02-03T00:12:45.848Z,10.30
2023-02-03T00:13:46.062Z,11.10
2023-02-03T00:14:46.181Z,11.40
2023-02-03T00:15:46.352Z,10.90
2023-02-03T00:16:46.535Z,12.40
2023-02-03T00:17:46.675Z,11.20
2023-02-03T00:18:46.918Z,12.70
2023-02-03T00:19:47.044Z,10.30
2023-02-03T00:20:47.198Z,11.70
2023-02-03T00:21:47.390Z,11.40
2023-02-03T00:22:47.570Z,9.90
2023-02-03T00:23:47.745Z,10.30
2023-02-03T00:24:47.984Z,9.10
2023-02-03T00:25:48.123Z,10.10
2023-02-03T00:26:48.303Z,10.70
2023-02-03T00:27:48.567Z,10.00
2023-02-03T00:28:48.698Z,12.50
2023-02-03T00:29:48.855Z,10.00
2023-02-03T00:30:48.996Z,10.50
2023-02-03T00:31:49.282Z,11.10
2023-02-03T00:32:49.397Z,9.30
2023-02-03T00:33:49.616Z,9.30
2023-02-03T00:34:49.727Z,10.10
2023-02-03T00:35:49.902Z,10.60
2023-02-03T00:36:50.059Z,10.30
2023-02-03T00:37:50.220Z,10.10
2023-02-03T00:38:50.387Z,10.50
2023-02-03T00:39:50.539Z,12.60
2023-02-03T00:40:50.713Z,10.40
2023-02-03T00:41:50.899Z,8.70
2023-02-03T00:42:51.087Z,10.00
2023-02-03T00:43:51.307Z,8.70
2023-02-03T00:44:51.430Z,11.40
2023-02-03T00:45:51.666Z,9.50
2023-02-03T00:46:51.769Z,9.60
2023-02-03T00:47:51.940Z,12.10
2023-02-03T00:48:52.123Z,11.10
2023-02-03T00:49:52.273Z,7.90
2023-02-03T00:50:52.467Z,11.60
2023-02-03T00:51:52.630Z,8.50
2023-02-03T00:52:52.801Z,10.90
2023-02-03T00:53:53.013Z,10.80
2023-02-03T00:54:53.168Z,11.00
2023-02-03T00:55:53.363Z,8.80
2023-02-03T00:56:53.539Z,8.70
2023-02-03T00:57:53.713Z,10.00
2023-02-03T00:58:53.910Z,8.50
2023-02-03T00:59:54.098Z,9.00
2023-02-03T01:00:54.281Z,8.70
2023-02-03T01:01:54.480Z,9.70
2023-02-03T01:02:54.781Z,8.50
2023-02-03T01:03:54.811Z,9.50
2023-02-03T01:04:54.942Z,9.00
2023-02-03T01:05:55.132Z,9.60
2023-02-03T01:06:55.301Z,8.60
2023-02-03T01:07:55.484Z,10.40
2023-02-03T01:08:55.696Z,8.30
2023-02-03T01:09:55.838Z,8.30
2023-02-03T01:10:56.025Z,11.90
2023-02-03T01:11:56.177Z,7.50
2023-02-03T01:12:56.368Z,9.90
2023-02-03T01:13:56.568Z,9.20
2023-02-03T01:14:56.698Z,9.10
2023-02-03T01:15:56.879Z,10.50
2023-02-03T01:16:57.096Z,9.70
2023-02-03T01:17:57.232Z,9.20
2023-02-03T01:18:57.429Z,10.00
2023-02-03T01:19:57.593Z,9.70
2023-02-03T01:20:57.760Z,8.20
2023-02-03T01:21:57.945Z,9.70
2023-02-03T01:22:58.088Z,8.70
2023-02-03T01:23:58.283Z,8.90
2023-02-03T01:24:58.467Z,10.20
2023-02-03T01:25:58.627Z,10.80
2023-02-03T01:26:58.796Z,9.60
2023-02-03T01:27:59.020Z,9.20
2023-02-03T01:28:59.137Z,9.30
2023-02-03T01:29:59.344Z,8.90
2023-02-03T01:30:59.650Z,9.20
2023-02-03T01:31:59.783Z,8.80
2023-02-03T01:32:59.843Z,9.00
2023-02-03T01:33:59.988Z,10.00
2023-02-03T01:35:00.141Z,8.60
2023-02-03T01:36:00.312Z,8.40
2023-02-03T01:37:00.512Z,8.90
2023-02-03T01:38:00.716Z,8.90
2023-02-03T01:39:00.858Z,8.70
2023-02-03T01:40:01.044Z,8.10
2023-02-03T01:41:01.294Z,8.20
2023-02-03T01:42:01.404Z,7.80
2023-02-03T01:43:01.592Z,8.30
2023-02-03T01:44:01.733Z,7.40
2023-02-03T01:45:01.920Z,8.70
2023-02-03T01:46:02.177Z,8.20
2023-02-03T01:47:02.267Z,9.10
2023-02-03T01:48:02.454Z,7.80
2023-02-03T01:49:02.644Z,8.10
2023-02-03T01:50:02.822Z,8.40
2023-02-03T01:51:03.051Z,9.20
2023-02-03T01:52:03.160Z,7.20
2023-02-03T01:53:03.371Z,7.80
2023-02-03T01:54:03.530Z,9.00
2023-02-03T01:55:03.683Z,8.10
2023-02-03T01:56:03.856Z,10.00
2023-02-03T01:57:04.056Z,8.80
2023-02-03T01:58:04.295Z,7.40
2023-02-03T01:59:04.428Z,8.10
2023-02-03T02:00:04.553Z,7.50
2023-02-03T02:01:04.753Z,9.10
2023-02-03T02:02:04.920Z,7.70
2023-02-03T02:03:05.149Z,8.30
2023-02-03T02:04:05.281Z,7.30
2023-02-03T02:05:05.465Z,7.20
2023-02-03T02:06:05.643Z,6.80
2023-02-03T02:07:05.842Z,6.40
2023-02-03T02:08:06.014Z,7.00
2023-02-03T02:09:06.211Z,6.70
2023-02-03T02:10:06.337Z,7.20
2023-02-03T02:11:06.538Z,7.00
2023-02-03T02:12:06.692Z,6.90
2023-02-03T02:13:06.924Z,6.00
2023-02-03T02:14:07.069Z,6.10
2023-02-03T02:15:07.274Z,5.80
2023-02-03T02:16:07.441Z,6.60
2023-02-03T02:17:07.615Z,6.30
2023-02-03T02:18:07.823Z,5.10
2023-02-03T02:19:07.964Z,5.30
2023-02-03T02:20:08.141Z,5.80
2023-02-03T02:21:08.339Z,4.40
2023-02-03T02:22:08.521Z,5.50
2023-02-03T02:23:08.730Z,5.70
2023-02-03T02:24:08.844Z,4.90
2023-02-03T02:25:09.042Z,5.70
2023-02-03T02:26:09.213Z,4.00
2023-02-03T02:27:09.388Z,5.00
2023-02-03T02:28:09.619Z,4.10
2023-02-03T02:29:09.739Z,4.30
2023-02-03T02:30:09.947Z,4.30
2023-02-03T02:31:10.147Z,4.70
2023-02-03T02:32:10.250Z,4.80
2023-02-03T02:33:10.424Z,4.20
2023-02-03T02:34:10.634Z,4.40
2023-02-03T02:35:10.791Z,5.80
2023-02-03T02:36:10.996Z,4.60
2023-02-03T02:37:11.126Z,4.30
2023-02-03T02:38:11.309Z,4.00
2023-02-03T02:39:11.514Z,5.40
2023-02-03T02:40:11.636Z,4.60
2023-02-03T02:41:11.810Z,4.30
2023-02-03T02:42:11.981Z,3.80
2023-02-03T02:43:12.192Z,4.10
2023-02-03T02:44:12.330Z,4.20
2023-02-03T02:45:12.513Z,4.70
2023-02-03T02:46:12.735Z,4.30
2023-02-03T02:47:12.863Z,4.00
2023-02-03T02:48:13.026Z,3.60
2023-02-03T02:49:13.234Z,4.30
2023-02-03T02:50:13.406Z,3.70
2023-02-03T02:51:13.585Z,4.30
2023-02-03T02:52:13.771Z,4.40
2023-02-03T02:53:13.959Z,3.80
2023-02-03T02:54:14.097Z,3.80
2023-02-03T02:55:14.294Z,3.60
2023-02-03T02:56:15.645Z,4.10
2023-02-03T02:57:14.646Z,4.00
2023-02-03T02:58:14.833Z,4.30
2023-02-03T02:59:14.989Z,4.60
2023-02-03T03:00:15.180Z,3.60
2023-02-03T03:01:15.356Z,3.40
2023-02-03T03:02:15.506Z,3.40
2023-02-03T03:03:15.717Z,3.70
2023-02-03T03:04:15.840Z,4.20
2023-02-03T03:05:16.067Z,2.90
2023-02-03T03:06:16.216Z,2.50
2023-02-03T03:07:16.425Z,2.90
2023-02-03T03:08:16.560Z,3.10
2023-02-03T03:09:16.747Z,4.00
2023-02-03T03:10:16.915Z,3.30
2023-02-03T03:11:17.084Z,3.90
2023-02-03T03:12:17.284Z,3.00
2023-02-03T03:13:17.423Z,3.30
2023-02-03T03:14:17.604Z,3.30
2023-02-03T03:15:17.784Z,2.80
2023-02-03T03:16:18.012Z,2.80
2023-02-03T03:17:18.158Z,4.60
2023-02-03T03:18:18.295Z,2.80
2023-02-03T03:19:18.480Z,2.60
2023-02-03T03:20:18.655Z,3.90
2023-02-03T03:21:18.823Z,2.40
2023-02-03T03:22:19.059Z,2.00
2023-02-03T03:23:19.197Z,3.20
2023-02-03T03:24:19.377Z,3.00
2023-02-03T03:25:19.557Z,2.40
2023-02-03T03:26:19.740Z,2.50
2023-02-03T03:27:19.955Z,2.50
2023-02-03T03:28:20.108Z,3.20
2023-02-03T03:29:20.240Z,3.80
2023-02-03T03:30:20.422Z,2.80
2023-02-03T03:31:20.697Z,2.40
2023-02-03T03:32:20.819Z,3.50
2023-02-03T03:33:20.955Z,2.60
2023-02-03T03:34:21.140Z,3.10
2023-02-03T03:35:21.345Z,3.00
2023-02-03T03:36:21.497Z,2.40
2023-02-03T03:37:21.699Z,1.90
2023-02-03T03:38:21.860Z,2.70
2023-02-03T03:39:22.037Z,2.30
2023-02-03T03:40:22.207Z,3.30
2023-02-03T03:41:22.388Z,3.20
2023-02-03T03:42:22.568Z,1.80
2023-02-03T03:43:22.807Z,2.50
2023-02-03T03:44:22.932Z,2.40
2023-02-03T03:45:23.109Z,2.80
2023-02-03T03:46:23.326Z,2.80
2023-02-03T03:47:23.495Z,4.60
2023-02-03T03:48:23.598Z,3.60
2023-02-03T03:49:23.804Z,2.20
2023-02-03T03:50:23.961Z,3.00
2023-02-03T03:51:24.142Z,3.40
2023-02-03T03:52:24.373Z,3.90
2023-02-03T03:53:24.506Z,2.70
2023-02-03T03:54:24.682Z,3.30
2023-02-03T03:55:24.864Z,2.60
2023-02-03T03:56:25.033Z,3.30
2023-02-03T03:57:25.234Z,3.50
2023-02-03T03:58:25.443Z,3.10
2023-02-03T03:59:25.586Z,3.30
2023-02-03T04:00:26.167Z,3.30
2023-02-03T04:01:26.096Z,3.00
2023-02-03T04:02:26.156Z,3.30
2023-02-03T04:03:26.422Z,3.20
2023-02-03T04:04:26.453Z,3.50
2023-02-03T04:05:26.636Z,3.50
2023-02-03T04:06:26.827Z,3.30
2023-02-03T04:07:26.999Z,3.50
2023-02-03T04:08:27.189Z,4.20
2023-02-03T04:09:27.386Z,4.10
2023-02-03T04:10:27.777Z,2.90
2023-02-03T04:11:27.730Z,3.60
2023-02-03T04:12:27.907Z,4.00
2023-02-03T04:13:28.122Z,3.10
2023-02-03T04:14:28.250Z,4.10
2023-02-03T04:15:28.425Z,3.30
2023-02-03T04:16:28.715Z,3.70
2023-02-03T04:17:28.787Z,3.50
2023-02-03T04:18:28.927Z,3.00
2023-02-03T04:19:29.116Z,3.70
2023-02-03T04:20:29.537Z,3.20
2023-02-03T04:21:29.437Z,4.60
2023-02-03T04:22:29.619Z,4.20
2023-02-03T04:23:29.805Z,4.20
2023-02-03T04:24:29.992Z,3.70
2023-02-03T04:25:30.193Z,4.50
2023-02-03T04:26:30.345Z,5.50
2023-02-03T04:27:30.547Z,4.90
2023-02-03T04:28:30.688Z,4.40
2023-02-03T04:29:30.868Z,5.10
2023-02-03T04:30:31.063Z,4.40
2023-02-03T04:31:31.322Z,6.00
2023-02-03T04:32:31.364Z,5.40
2023-02-03T04:33:31.562Z,5.90
2023-02-03T04:34:31.777Z,5.50
2023-02-03T04:35:31.912Z,5.60
2023-02-03T04:36:32.082Z,5.60
2023-02-03T04:37:32.263Z,6.20
2023-02-03T04:38:32.439Z,6.40
2023-02-03T04:39:32.636Z,5.90
2023-02-03T04:40:34.932Z,6.60
2023-02-03T04:41:32.959Z,5.80
2023-02-03T04:42:33.131Z,6.10
2023-02-03T04:43:33.312Z,6.40
2023-02-03T04:44:33.520Z,7.40
2023-02-03T04:45:33.747Z,6.70
2023-02-03T04:46:33.856Z,7.20
2023-02-03T04:47:34.043Z,6.90
2023-02-03T04:48:34.210Z,6.90
2023-02-03T04:49:34.409Z,7.00
2023-02-03T04:50:34.595Z,8.40
2023-02-03T04:51:34.767Z,7.40
2023-02-03T04:52:34.960Z,8.50
2023-02-03T04:53:35.117Z,8.70
2023-02-03T04:54:35.327Z,8.20
2023-02-03T04:55:35.473Z,9.10
2023-02-03T04:56:35.653Z,8.40
2023-02-03T04:57:35.827Z,7.90
2023-02-03T04:58:36.016Z,7.80
2023-02-03T04:59:36.233Z,8.30
2023-02-03T05:00:36.368Z,10.20
2023-02-03T05:01:36.554Z,9.60
2023-02-03T05:02:36.718Z,9.50
2023-02-03T05:03:36.954Z,10.20
2023-02-03T05:04:37.148Z,10.50
2023-02-03T05:05:37.274Z,10.10
2023-02-03T05:06:37.421Z,9.60
2023-02-03T05:07:37.607Z,9.70
2023-02-03T05:08:37.806Z,11.50
2023-02-03T05:09:37.999Z,10.90
2023-02-03T05:10:38.141Z,11.80
2023-02-03T05:11:38.295Z,11.70
2023-02-03T05:12:38.483Z,11.20
2023-02-03T05:13:38.684Z,10.20
2023-02-03T05:14:38.836Z,11.60
2023-02-03T05:15:38.991Z,11.60
2023-02-03T05:16:39.239Z,13.00
2023-02-03T05:17:39.328Z,10.60
2023-02-03T05:18:39.483Z,12.60
2023-02-03T05:19:39.703Z,11.40
2023-02-03T05:20:39.859Z,12.60
2023-02-03T05:21:40.031Z,12.30
2023-02-03T05:22:40.191Z,14.70
2023-02-03T05:23:40.366Z,12.60
2023-02-03T05:24:40.537Z,12.80
2023-02-03T05:25:40.680Z,12.80
2023-02-03T05:26:40.833Z,13.70
2023-02-03T05:27:41.016Z,14.20
2023-02-03T05:28:41.162Z,12.20
2023-02-03T05:29:41.341Z,13.10
2023-02-03T05:30:41.576Z,12.90
2023-02-03T05:31:41.757Z,13.20
2023-02-03T05:32:41.873Z,13.40
2023-02-03T05:33:42.079Z,14.40
2023-02-03T05:34:42.514Z,13.70
2023-02-03T05:35:42.417Z,15.50
2023-02-03T05:36:42.603Z,12.60
2023-02-03T05:37:42.784Z,14.10
2023-02-03T05:38:42.939Z,13.60
2023-02-03T05:39:43.131Z,13.50
2023-02-03T05:40:43.252Z,14.00
2023-02-03T05:41:43.409Z,12.70
2023-02-03T05:42:43.604Z,13.10
2023-02-03T05:43:43.765Z,13.30
2023-02-03T05:44:43.983Z,13.30
2023-02-03T05:45:44.122Z,12.50
2023-02-03T05:46:44.282Z,13.30
2023-02-03T05:47:44.445Z,13.90
2023-02-03T05:48:44.619Z,14.00
2023-02-03T05:49:44.809Z,14.20
2023-02-03T05:50:44.987Z,14.30
2023-02-03T05:51:45.142Z,13.30
2023-02-03T05:52:45.313Z,14.00
2023-02-03T05:53:45.459Z,13.70
2023-02-03T05:54:45.645Z,13.70
2023-02-03T05:55:45.807Z,14.40
2023-02-03T05:56:45.966Z,13.90
2023-02-03T05:57:46.117Z,13.60
2023-02-03T05:58:46.303Z,13.50
2023-02-03T05:59:46.517Z,14.60
2023-02-03T06:00:46.669Z,14.90
2023-02-03T06:01:46.817Z,14.20
2023-02-03T06:02:46.990Z,14.40
2023-02-03T06:03:47.188Z,14.90
2023-02-03T06:04:47.462Z,14.00
2023-02-03T06:05:47.508Z,13.90
2023-02-03T06:06:47.708Z,14.10
2023-02-03T06:07:47.854Z,15.00
2023-02-03T06:08:48.030Z,13.90
2023-02-03T06:09:48.187Z,14.80
2023-02-03T06:10:48.351Z,14.40
2023-02-03T06:11:48.493Z,14.20
2023-02-03T06:12:48.676Z,13.00
2023-02-03T06:13:48.876Z,12.70
2023-02-03T06:14:49.011Z,14.50
2023-02-03T06:15:49.168Z,13.30
2023-02-03T06:16:49.390Z,13.50
2023-02-03T06:17:49.521Z,15.90
2023-02-03T06:18:49.695Z,14.70
2023-02-03T06:19:49.883Z,14.40
2023-02-03T06:20:50.042Z,14.00
2023-02-03T06:21:50.212Z,13.80
2023-02-03T06:22:50.371Z,14.70
2023-02-03T06:23:50.529Z,12.60
2023-02-03T06:24:50.703Z,13.90
2023-02-03T06:25:50.857Z,13.20
2023-02-03T06:26:51.033Z,14.30
2023-02-03T06:27:51.252Z,13.40
2023-02-03T06:28:51.365Z,14.00
2023-02-03T06:29:51.522Z,14.50
2023-02-03T06:30:51.790Z,13.60
2023-02-03T06:31:51.993Z,13.80
2023-02-03T06:32:52.064Z,13.90
2023-02-03T06:33:52.205Z,14.60
2023-02-03T06:34:52.390Z,14.10
2023-02-03T06:35:52.540Z,13.10
2023-02-03T06:36:52.729Z,14.80
2023-02-03T06:37:52.876Z,9.60
2023-02-03T06:38:53.100Z,10.70
2023-02-03T06:39:53.235Z,12.10
2023-02-03T06:40:53.387Z,11.60
2023-02-03T06:41:53.596Z,11.40
2023-02-03T06:42:53.766Z,12.90
2023-02-03T06:43:53.942Z,11.80
2023-02-03T06:44:54.098Z,10.10
2023-02-03T06:45:54.278Z,14.20
2023-02-03T06:46:54.449Z,13.40
2023-02-03T06:47:54.605Z,12.40
2023-02-03T06:48:54.784Z,11.50
2023-02-03T06:49:54.940Z,12.60
2023-02-03T06:50:55.134Z,12.60
2023-02-03T06:51:55.313Z,13.60
2023-02-03T06:52:55.490Z,13.60
2023-02-03T06:53:55.644Z,13.10
2023-02-03T06:54:55.826Z,12.10
2023-02-03T06:55:55.973Z,12.20
2023-02-03T06:56:56.166Z,13.20
2023-02-03T06:57:56.321Z,12.70
2023-02-03T06:58:56.473Z,14.80
2023-02-03T06:59:56.654Z,14.00
2023-02-03T07:00:56.834Z,11.40
2023-02-03T07:01:56.985Z,8.40
2023-02-03T07:02:57.227Z,13.40
2023-02-03T07:03:57.322Z,12.40
2023-02-03T07:04:57.537Z,10.80
2023-02-03T07:05:57.657Z,11.20
2023-02-03T07:06:57.820Z,11.70
2023-02-03T07:07:57.990Z,11.80
2023-02-03T07:08:59.931Z,12.20
2023-02-03T07:09:58.345Z,12.40
2023-02-03T07:10:58.493Z,12.90
2023-02-03T07:11:58.652Z,13.50
2023-02-03T07:12:58.851Z,14.00
2023-02-03T07:13:59.038Z,13.60
2023-02-03T07:14:59.238Z,12.80
2023-02-03T07:15:59.424Z,12.00
2023-02-03T07:16:59.555Z,12.90
2023-02-03T07:17:59.740Z,13.50
2023-02-03T07:18:59.909Z,12.70
2023-02-03T07:20:00.149Z,12.90
2023-02-03T07:21:00.245Z,12.40
2023-02-03T07:22:00.416Z,12.60
2023-02-03T07:23:00.600Z,10.60
2023-02-03T07:24:00.763Z,10.30
2023-02-03T07:25:00.952Z,13.20
2023-02-03T07:26:01.088Z,12.00
2023-02-03T07:27:04.100Z,12.50
2023-02-03T07:28:01.481Z,11.30
2023-02-03T07:29:01.593Z,11.30
2023-02-03T07:30:01.787Z,12.30
2023-02-03T07:31:02.056Z,14.10
2023-02-03T07:32:02.256Z,12.30
2023-02-03T07:33:02.287Z,11.90
2023-02-03T07:34:02.457Z,10.80
2023-02-03T07:35:02.657Z,11.40
2023-02-03T07:36:02.812Z,11.50
2023-02-03T07:37:02.969Z,11.00
2023-02-03T07:38:03.122Z,11.60
2023-02-03T07:39:03.302Z,12.00
2023-02-03T07:40:03.463Z,10.80
2023-02-03T07:41:03.679Z,11.60
2023-02-03T07:42:03.817Z,10.90
2023-02-03T07:43:03.989Z,11.60
2023-02-03T07:44:04.152Z,11.00
2023-02-03T07:45:04.331Z,12.80
2023-02-03T07:46:04.534Z,11.80
2023-02-03T07:47:04.689Z,11.10
2023-02-03T07:48:04.858Z,12.30
2023-02-03T07:49:05.044Z,11.40
2023-02-03T07:50:05.252Z,11.50
2023-02-03T07:51:05.420Z,10.30
2023-02-03T07:52:05.609Z,11.60
2023-02-03T07:53:05.783Z,12.40
2023-02-03T07:54:05.962Z,11.80
2023-02-03T07:55:06.159Z,10.60
2023-02-03T07:56:06.354Z,11.40
2023-02-03T07:57:06.492Z,11.20
2023-02-03T07:58:06.668Z,11.10
2023-02-03T07:59:06.852Z,11.20
2023-02-03T08:00:07.055Z,11.20
2023-02-03T08:01:07.240Z,11.00
2023-02-03T08:02:07.419Z,10.80
2023-02-03T08:03:07.536Z,10.40
2023-02-03T08:04:07.681Z,9.50
2023-02-03T08:05:07.913Z,10.90
2023-02-03T08:06:08.033Z,10.90
2023-02-03T08:07:08.184Z,10.80
2023-02-03T08:08:08.387Z,10.40
2023-02-03T08:09:08.525Z,11.30
2023-02-03T08:10:08.693Z,9.40
2023-02-03T08:11:08.855Z,11.70
2023-02-03T08:12:09.073Z,10.60
2023-02-03T08:13:09.202Z,10.10
2023-02-03T08:14:09.377Z,10.70
2023-02-03T08:15:09.550Z,9.80
2023-02-03T08:16:09.753Z,9.30
2023-02-03T08:17:09.883Z,10.10
2023-02-03T08:18:10.051Z,9.60
2023-02-03T08:19:10.226Z,9.60
2023-02-03T08:20:10.394Z,10.00
2023-02-03T08:21:10.621Z,9.00
2023-02-03T08:22:10.749Z,10.90
2023-02-03T08:23:10.923Z,9.30
2023-02-03T08:24:11.088Z,9.60
2023-02-03T08:25:11.264Z,10.40
2023-02-03T08:26:11.452Z,10.20
2023-02-03T08:27:11.648Z,11.20
2023-02-03T08:28:11.800Z,10.90
2023-02-03T08:29:11.924Z,9.70
2023-02-03T08:30:12.095Z,9.90
2023-02-03T08:31:12.450Z,10.70
2023-02-03T08:32:12.497Z,9.40
2023-02-03T08:33:12.622Z,9.70
2023-02-03T08:34:12.776Z,10.40
2023-02-03T08:35:12.957Z,8.80
2023-02-03T08:36:13.141Z,10.10
2023-02-03T08:37:13.316Z,9.20
2023-02-03T08:38:13.479Z,8.90
2023-02-03T08:39:13.643Z,9.70
2023-02-03T08:40:13.804Z,9.20
2023-02-03T08:41:13.995Z,8.90
2023-02-03T08:42:14.166Z,8.40
2023-02-03T08:43:14.331Z,8.30
2023-02-03T08:44:14.493Z,9.40
2023-02-03T08:45:14.667Z,9.40
2023-02-03T08:46:15.023Z,8.00
2023-02-03T08:47:15.019Z,9.50
2023-02-03T08:48:15.220Z,9.00
2023-02-03T08:49:15.391Z,10.10
2023-02-03T08:50:15.552Z,9.10
2023-02-03T08:51:15.810Z,7.20
2023-02-03T08:52:18.014Z,9.90
2023-02-03T08:53:16.106Z,9.40
2023-02-03T08:54:16.286Z,8.10
2023-02-03T08:55:16.464Z,7.90
2023-02-03T08:56:16.692Z,8.80
2023-02-03T08:57:16.871Z,9.20
2023-02-03T08:58:16.997Z,8.80
2023-02-03T08:59:17.275Z,9.40
2023-02-03T09:00:17.388Z,9.20
2023-02-03T09:01:17.603Z,9.00
2023-02-03T09:02:17.734Z,8.90
2023-02-03T09:03:17.917Z,7.90
2023-02-03T09:04:18.045Z,8.00
2023-02-03T09:05:18.246Z,8.00
2023-02-03T09:06:19.818Z,7.40
2023-02-03T09:07:18.593Z,8.80
2023-02-03T09:08:18.760Z,8.30
2023-02-03T09:09:18.930Z,7.90
2023-02-03T09:10:19.092Z,8.30
2023-02-03T09:11:19.273Z,8.60
2023-02-03T09:12:19.433Z,7.00
2023-02-03T09:13:19.614Z,8.20
2023-02-03T09:14:19.778Z,7.30
2023-02-03T09:15:20.123Z,7.70
2023-02-03T09:16:20.203Z,10.20
2023-02-03T09:17:20.318Z,8.10
2023-02-03T09:18:20.499Z,7.80
2023-02-03T09:19:20.649Z,8.80
2023-02-03T09:20:20.888Z,7.10
2023-02-03T09:21:32.461Z,7.70
2023-02-03T09:22:22.140Z,8.30
2023-02-03T09:23:21.312Z,7.70
2023-02-03T09:24:21.477Z,7.20
2023-02-03T09:25:21.645Z,6.50
2023-02-03T09:26:21.824Z,7.40
2023-02-03T09:27:22.004Z,6.40
2023-02-03T09:28:22.205Z,6.20
2023-02-03T09:29:22.372Z,7.90
2023-02-03T09:30:22.581Z,6.10
2023-02-03T09:31:22.745Z,7.00
2023-02-03T09:32:22.887Z,6.30
2023-02-03T09:33:23.045Z,6.70
2023-02-03T09:34:23.218Z,7.20
2023-02-03T09:35:23.380Z,6.90
2023-02-03T09:36:23.561Z,7.00
2023-02-03T09:37:23.756Z,6.90
2023-02-03T09:38:23.900Z,6.30
2023-02-03T09:39:24.058Z,6.20
2023-02-03T09:40:24.311Z,6.40
2023-02-03T09:41:24.399Z,6.30
2023-02-03T09:42:24.572Z,6.40
2023-02-03T09:43:24.845Z,6.50
2023-02-03T09:44:24.914Z,6.00
2023-02-03T09:45:25.092Z,7.70
2023-02-03T09:46:25.322Z,7.40
2023-02-03T09:47:25.461Z,5.70
2023-02-03T09:48:25.587Z,6.30
2023-02-03T09:49:25.854Z,6.50
2023-02-03T09:50:26.320Z,6.40
2023-02-03T09:51:26.114Z,6.90
2023-02-03T09:52:26.323Z,6.50
2023-02-03T09:53:26.481Z,6.70
2023-02-03T09:54:26.678Z,6.90
2023-02-03T09:55:26.849Z,7.50
2023-02-03T09:56:27.018Z,6.50
2023-02-03T09:57:27.191Z,6.10
2023-02-03T09:58:27.359Z,5.60
2023-02-03T09:59:27.523Z,5.80
2023-02-03T10:00:28.100Z,6.50
2023-02-03T10:01:27.956Z,7.50
2023-02-03T10:02:28.122Z,6.00
2023-02-03T10:03:28.243Z,7.30
2023-02-03T10:04:28.421Z,6.00
2023-02-03T10:05:28.591Z,6.40
2023-02-03T10:06:28.808Z,5.70
2023-02-03T10:07:28.962Z,6.70
2023-02-03T10:08:29.134Z,6.80
2023-02-03T10:09:29.296Z,5.80
2023-02-03T10:10:29.759Z,5.80
2023-02-03T10:11:29.700Z,6.70
2023-02-03T10:12:29.827Z,6.50
2023-02-03T10:13:29.983Z,5.20
2023-02-03T10:14:30.174Z,5.60
2023-02-03T10:15:30.335Z,6.10
2023-02-03T10:16:30.639Z,5.40
2023-02-03T10:17:30.750Z,5.50
2023-02-03T10:18:30.917Z,4.70
2023-02-03T10:19:31.037Z,6.00
2023-02-03T10:20:31.249Z,6.50
2023-02-03T10:21:31.416Z,6.70
2023-02-03T10:22:31.554Z,6.50
2023-02-03T10:23:31.706Z,5.70
2023-02-03T10:24:31.871Z,5.30
2023-02-03T10:25:32.055Z,7.30
2023-02-03T10:26:32.232Z,5.90
2023-02-03T10:27:32.389Z,5.00
2023-02-03T10:28:32.582Z,4.60
2023-02-03T10:29:32.727Z,6.50
2023-02-03T10:30:33.397Z,5.90
2023-02-03T10:31:33.191Z,6.10
2023-02-03T10:32:33.259Z,5.20
2023-02-03T10:33:33.419Z,5.90
2023-02-03T10:34:33.611Z,5.40
2023-02-03T10:35:33.803Z,5.70
2023-02-03T10:36:33.945Z,5.10
2023-02-03T10:37:34.109Z,5.10
2023-02-03T10:38:34.296Z,5.10
2023-02-03T10:39:34.498Z,4.80
2023-02-03T10:40:34.743Z,4.70
2023-02-03T10:41:34.853Z,5.60
2023-02-03T10:42:35.021Z,5.30
2023-02-03T10:43:35.201Z,5.70
2023-02-03T10:44:35.373Z,4.40
2023-02-03T10:45:35.553Z,5.40
2023-02-03T10:46:35.861Z,4.50
2023-02-03T10:47:35.909Z,6.10
2023-02-03T10:48:36.085Z,4.70
2023-02-03T10:49:36.252Z,4.60
2023-02-03T10:50:36.422Z,4.50
2023-02-03T10:51:36.593Z,4.20
2023-02-03T10:52:36.777Z,5.20
2023-02-03T10:53:36.923Z,4.70
2023-02-03T10:54:37.090Z,4.60
2023-02-03T10:55:37.256Z,4.60
2023-02-03T10:56:37.439Z,5.20
2023-02-03T10:57:37.611Z,3.60
2023-02-03T10:58:37.774Z,5.40
2023-02-03T10:59:37.950Z,4.10
2023-02-03T11:00:38.115Z,4.90
2023-02-03T11:01:38.399Z,4.40
2023-02-03T11:02:38.509Z,5.30
2023-02-03T11:03:38.628Z,3.90
2023-02-03T11:04:38.794Z,4.60
2023-02-03T11:05:38.960Z,4.90
2023-02-03T11:06:39.146Z,4.80
2023-02-03T11:07:39.294Z,3.40
2023-02-03T11:08:39.486Z,5.80
2023-02-03T11:09:39.661Z,4.70
2023-02-03T11:10:39.866Z,3.50
2023-02-03T11:11:40.031Z,4.50
2023-02-03T11:12:40.199Z,6.30
2023-02-03T11:13:40.390Z,6.80
2023-02-03T11:14:40.524Z,4.90
2023-02-03T11:15:40.681Z,4.30
2023-02-03T11:16:43.328Z,6.90
2023-02-03T11:17:40.995Z,5.70
2023-02-03T11:18:41.195Z,6.50
2023-02-03T11:19:41.368Z,4.60
2023-02-03T11:20:41.542Z,7.10
2023-02-03T11:21:41.733Z,6.30
2023-02-03T11:22:41.909Z,6.00
2023-02-03T11:23:42.084Z,8.10
2023-02-03T11:24:42.256Z,7.80
2023-02-03T11:25:42.431Z,5.00
2023-02-03T11:26:42.597Z,6.40
2023-02-03T11:27:42.795Z,6.70
2023-02-03T11:28:42.973Z,7.80
2023-02-03T11:29:43.165Z,7.50
2023-02-03T11:30:43.379Z,7.70
2023-02-03T11:31:43.569Z,9.10
2023-02-03T11:32:43.665Z,7.80
2023-02-03T11:33:43.843Z,8.50
2023-02-03T11:34:44.018Z,8.10
2023-02-03T11:35:44.205Z,8.70
2023-02-03T11:36:44.377Z,9.60
2023-02-03T11:37:44.546Z,7.80
2023-02-03T11:38:44.756Z,7.80
2023-02-03T11:39:44.871Z,7.80
2023-02-03T11:40:45.046Z,8.10
2023-02-03T11:41:45.229Z,8.80
2023-02-03T11:42:45.406Z,9.40
2023-02-03T11:43:45.588Z,11.40
2023-02-03T11:44:45.754Z,11.40
2023-02-03T11:45:45.919Z,11.50
2023-02-03T11:46:46.188Z,9.40
2023-02-03T11:47:46.264Z,10.00
2023-02-03T11:48:46.456Z,10.20
2023-02-03T11:49:46.603Z,13.00
2023-02-03T11:50:46.777Z,10.70
2023-02-03T11:51:46.967Z,12.80
2023-02-03T11:52:47.166Z,11.00
2023-02-03T11:53:56.628Z,11.20
2023-02-03T11:54:48.507Z,9.70
2023-02-03T11:55:47.704Z,10.90
2023-02-03T11:56:47.910Z,9.20
2023-02-03T11:57:48.060Z,10.80
2023-02-03T11:58:48.231Z,11.00
2023-02-03T11:59:48.427Z,7.90
2023-02-03T12:00:48.596Z,15.50
2023-02-03T12:01:48.799Z,11.80
2023-02-03T12:02:48.957Z,13.40
2023-02-03T12:03:49.103Z,10.00
2023-02-03T12:04:49.315Z,12.30
2023-02-03T12:05:49.451Z,11.20
2023-02-03T12:06:49.648Z,11.40
2023-02-03T12:07:49.806Z,14.00
2023-02-03T12:08:49.942Z,12.00
2023-02-03T12:09:50.124Z,13.30
2023-02-03T12:10:50.302Z,13.00
2023-02-03T12:11:50.473Z,13.40
2023-02-03T12:12:50.672Z,12.90
2023-02-03T12:13:50.815Z,12.80
2023-02-03T12:14:50.989Z,14.00
2023-02-03T12:15:51.233Z,11.40
2023-02-03T12:16:51.318Z,13.60
2023-02-03T12:17:51.509Z,11.80
2023-02-03T12:18:51.654Z,15.10
2023-02-03T12:19:52.041Z,11.30
2023-02-03T12:20:52.016Z,12.50
2023-02-03T12:21:52.191Z,11.20
2023-02-03T12:22:52.384Z,12.30
2023-02-03T12:23:52.537Z,12.10
2023-02-03T12:24:52.719Z,11.60
2023-02-03T12:25:52.896Z,12.00
2023-02-03T12:26:53.080Z,12.30
2023-02-03T12:27:53.310Z,11.90
2023-02-03T12:28:53.445Z,14.10
2023-02-03T12:29:53.636Z,12.80
2023-02-03T12:30:53.829Z,14.50
2023-02-03T12:31:54.031Z,12.90
2023-02-03T12:32:54.142Z,12.20
2023-02-03T12:33:54.321Z,12.10
2023-02-03T12:34:54.511Z,14.90
2023-02-03T12:35:54.713Z,11.70
2023-02-03T12:36:54.850Z,13.40
2023-02-03T12:37:55.046Z,13.20
2023-02-03T12:38:55.210Z,13.10
2023-02-03T12:39:55.389Z,11.70
2023-02-03T12:40:55.591Z,13.70
2023-02-03T12:41:55.724Z,15.10
2023-02-03T12:42:55.907Z,10.70
2023-02-03T12:43:56.086Z,13.30
2023-02-03T12:44:56.292Z,11.20
2023-02-03T12:45:56.422Z,12.20
2023-02-03T12:46:56.586Z,13.20
2023-02-03T12:47:56.769Z,14.40
2023-02-03T12:48:56.927Z,12.20
2023-02-03T12:49:57.135Z,13.70
2023-02-03T12:50:57.305Z,13.00
2023-02-03T12:51:57.484Z,12.10
2023-02-03T12:52:57.667Z,14.00
2023-02-03T12:53:57.847Z,12.40
2023-02-03T12:54:58.034Z,12.00
2023-02-03T12:55:58.191Z,11.10
2023-02-03T12:56:58.356Z,11.80
2023-02-03T12:57:58.508Z,13.10
2023-02-03T12:58:58.722Z,14.20
2023-02-03T12:59:58.923Z,14.00
2023-02-03T13:00:59.094Z,15.10
2023-02-03T13:01:59.306Z,14.40
2023-02-03T13:02:59.397Z,14.20
2023-02-03T13:03:59.583Z,14.10
2023-02-03T13:04:59.812Z,13.90
2023-02-03T13:05:59.918Z,13.00
2023-02-03T13:07:00.117Z,15.00
2023-02-03T13:08:00.239Z,12.90
2023-02-03T13:09:00.426Z,12.70
2023-02-03T13:10:00.619Z,12.70